Time;durP1;ratioP1;P1;durP2;ratioP2;P2;SDS_P1;SDS_P2;PMS_P1;PMS_P2;Temp;Humidity;BMP_temperature;BMP_pressure;BME280_temperature;BME280_humidity;BME280_pressure;Samples;Min_cycle;Max_cycle;Signal;HPM_P1;HPM_P2
2023/08/27 00:02:04;;;;;;;12.27;10.50;;;14.10;99.90;;;;;;5069008;28;20032;-77
2023/08/27 00:04:29;;;;;;;13.77;9.35;;;14.10;99.90;;;;;;5064240;28;20486;-77
2023/08/27 00:06:55;;;;;;;12.70;9.27;;;14.10;99.90;;;;;;5068478;28;20033;-77
2023/08/27 00:09:21;;;;;;;12.43;9.52;;;14.10;99.90;;;;;;5068805;28;20044;-77
2023/08/27 00:11:46;;;;;;;11.80;10.23;;;14.10;99.90;;;;;;5068967;28;20036;-77
2023/08/27 00:14:12;;;;;;;12.38;10.13;;;14.10;99.90;;;;;;5068720;28;20048;-77
2023/08/27 00:16:38;;;;;;;12.27;10.30;;;14.10;99.90;;;;;;5072570;28;20181;-77
2023/08/27 00:19:05;;;;;;;13.45;9.43;;;14.10;99.90;;;;;;5070180;28;20499;-77
2023/08/27 00:21:31;;;;;;;10.85;9.35;;;14.10;99.90;;;;;;5071703;28;20499;-77
2023/08/27 00:23:57;;;;;;;11.27;9.32;;;14.10;99.90;;;;;;5067770;28;20481;-77
2023/08/27 00:26:23;;;;;;;11.27;9.35;;;14.10;99.90;;;;;;5070887;28;20127;-77
2023/08/27 00:28:49;;;;;;;10.73;9.40;;;14.00;99.90;;;;;;5070038;28;20072;-77
2023/08/27 00:31:14;;;;;;;11.93;9.25;;;14.10;99.90;;;;;;5102807;27;20054;-77
2023/08/27 00:33:40;;;;;;;12.68;9.80;;;14.10;99.90;;;;;;5072099;28;20048;-77
2023/08/27 00:36:06;;;;;;;12.35;9.75;;;14.00;99.90;;;;;;5054497;28;20040;-77
2023/08/27 00:38:31;;;;;;;11.68;8.98;;;14.00;99.90;;;;;;5070381;28;20079;-77
2023/08/27 00:40:57;;;;;;;14.05;11.15;;;14.00;99.90;;;;;;5070788;28;20036;-77
2023/08/27 00:43:23;;;;;;;12.88;10.80;;;14.00;99.90;;;;;;5070569;28;20064;-77
2023/08/27 00:45:49;;;;;;;12.85;10.27;;;14.00;99.90;;;;;;5070526;28;20197;-77
2023/08/27 00:48:15;;;;;;;11.43;10.25;;;14.00;99.90;;;;;;5073710;28;20037;-77
2023/08/27 00:50:41;;;;;;;14.38;11.10;;;14.00;99.90;;;;;;5077799;28;20043;-77
2023/08/27 00:53:06;;;;;;;16.08;10.20;;;14.00;99.90;;;;;;5071688;28;20040;-77
2023/08/27 00:55:34;;;;;;;11.35;10.00;;;14.00;99.90;;;;;;5071847;28;20394;-77
2023/08/27 00:58:00;;;;;;;15.15;10.23;;;13.90;99.90;;;;;;5070826;28;20553;-77
2023/08/27 01:00:26;;;;;;;14.05;10.98;;;13.90;99.90;;;;;;5103151;27;20051;-78
2023/08/27 01:02:52;;;;;;;14.32;11.20;;;13.90;99.90;;;;;;5102761;27;20051;-77
2023/08/27 01:05:20;;;;;;;11.85;10.63;;;13.90;99.90;;;;;;5071246;28;20073;-78
2023/08/27 01:07:53;;;;;;;13.85;10.70;;;13.90;99.90;;;;;;5101936;27;20056;-77
2023/08/27 01:10:54;;;;;;;16.70;10.82;;;13.90;99.90;;;;;;5069735;28;20055;-77
2023/08/27 01:13:43;;;;;;;11.63;10.43;;;13.90;99.90;;;;;;5069139;28;20056;-77
2023/08/27 01:16:09;;;;;;;13.90;9.80;;;13.90;99.90;;;;;;5072996;28;20044;-78
2023/08/27 01:18:36;;;;;;;11.40;9.90;;;13.90;99.90;;;;;;5073887;28;20070;-77
2023/08/27 01:21:24;;;;;;;13.65;10.45;;;13.90;99.90;;;;;;5106499;27;20101;-77
2023/08/27 01:23:50;;;;;;;12.93;9.93;;;13.80;99.90;;;;;;5073536;28;20149;-76
2023/08/27 01:26:30;;;;;;;16.67;9.95;;;13.80;99.90;;;;;;5074840;28;20048;-77
2023/08/27 01:29:30;;;;;;;12.32;9.55;;;13.80;99.90;;;;;;5104185;27;20710;-77
2023/08/27 01:31:56;;;;;;;;;;;13.80;99.90;;;;;;5074197;28;20178;-77
2023/08/27 01:34:24;;;;;;;11.90;10.30;;;13.80;99.90;;;;;;5072638;28;20383;-76
2023/08/27 01:36:49;;;;;;;12.00;10.45;;;13.80;99.90;;;;;;5073974;28;20051;-77
2023/08/27 01:39:15;;;;;;;19.27;14.23;;;13.80;99.90;;;;;;5071187;28;20673;-76
2023/08/27 01:41:40;;;;;;;14.05;10.32;;;13.80;99.90;;;;;;5096616;28;20051;-77
2023/08/27 01:44:06;;;;;;;12.30;9.88;;;13.80;99.90;;;;;;5076434;28;20051;-77
2023/08/27 01:46:32;;;;;;;11.00;8.93;;;13.80;99.90;;;;;;5077653;28;20043;-76
2023/08/27 01:48:57;;;;;;;10.98;9.88;;;13.80;99.90;;;;;;5073735;28;20036;-77
2023/08/27 01:51:23;;;;;;;11.45;9.95;;;13.70;99.90;;;;;;5075807;28;20037;-77
2023/08/27 01:53:49;;;;;;;10.43;9.32;;;13.70;99.90;;;;;;5086347;28;20375;-77
2023/08/27 01:56:14;;;;;;;12.45;9.90;;;13.80;99.90;;;;;;5074194;28;20052;-77
2023/08/27 01:58:40;;;;;;;11.02;9.48;;;13.70;99.90;;;;;;5053646;28;20393;-77
2023/08/27 02:01:06;;;;;;;13.20;9.43;;;13.70;99.90;;;;;;5077700;28;20044;-76
2023/08/27 02:03:32;;;;;;;10.27;9.15;;;13.70;99.90;;;;;;5085207;28;20047;-77
2023/08/27 02:05:58;;;;;;;11.70;8.98;;;13.70;99.90;;;;;;5083488;28;20036;-77
2023/08/27 02:08:23;;;;;;;13.48;9.20;;;13.70;99.90;;;;;;5084045;28;20032;-77
2023/08/27 02:10:49;;;;;;;13.27;9.02;;;13.70;99.90;;;;;;5081101;28;20044;-76
2023/08/27 02:13:14;;;;;;;10.95;8.73;;;13.70;99.90;;;;;;5077369;28;20053;-76
2023/08/27 02:15:45;;;;;;;10.02;8.88;;;13.80;99.90;;;;;;5079365;28;20052;-77
2023/08/27 02:18:10;;;;;;;11.18;8.98;;;13.60;99.90;;;;;;5074599;28;20161;-77
2023/08/27 02:20:36;;;;;;;13.00;9.13;;;13.60;99.90;;;;;;5078062;28;20098;-77
2023/08/27 02:23:03;;;;;;;10.75;8.63;;;13.60;99.90;;;;;;5071779;28;20052;-78
2023/08/27 02:25:28;;;;;;;10.82;8.88;;;13.60;99.90;;;;;;5076431;28;21228;-77
2023/08/27 02:27:54;;;;;;;12.32;8.68;;;13.60;99.90;;;;;;5074272;28;20029;-77
2023/08/27 02:30:20;;;;;;;13.35;9.50;;;13.60;99.90;;;;;;5106179;27;20047;-77
2023/08/27 02:32:45;;;;;;;12.05;9.48;;;13.60;99.90;;;;;;5072707;28;20040;-77
2023/08/27 02:35:11;;;;;;;13.43;9.23;;;13.60;99.90;;;;;;5079030;28;20069;-78
2023/08/27 02:37:36;;;;;;;11.02;9.05;;;13.60;99.90;;;;;;5079892;28;20036;-77
2023/08/27 02:40:03;;;;;;;11.20;9.52;;;13.50;99.90;;;;;;5077906;28;20040;-77
2023/08/27 02:42:28;;;;;;;17.25;10.02;;;13.50;99.90;;;;;;5078171;28;21155;-77
2023/08/27 02:44:54;;;;;;;12.10;9.65;;;13.50;99.90;;;;;;5078596;28;20036;-77
2023/08/27 02:47:19;;;;;;;11.90;10.35;;;13.50;99.90;;;;;;5072660;28;20065;-77
2023/08/27 02:49:45;;;;;;;12.07;9.75;;;13.50;99.90;;;;;;5072761;28;20571;-77
2023/08/27 02:52:13;;;;;;;12.43;9.77;;;13.40;99.90;;;;;;5079036;28;20145;-77
2023/08/27 02:54:38;;;;;;;15.32;10.40;;;13.40;99.90;;;;;;5109100;27;20043;-77
2023/08/27 02:57:04;;;;;;;11.40;9.25;;;13.40;99.90;;;;;;5073668;28;20040;-77
2023/08/27 02:59:30;;;;;;;11.82;9.38;;;13.40;99.90;;;;;;5074593;28;20089;-77
2023/08/27 03:01:56;;;;;;;15.40;10.18;;;13.40;99.90;;;;;;5076928;28;20037;-77
2023/08/27 03:04:21;;;;;;;14.48;9.98;;;13.40;99.90;;;;;;5074884;28;20056;-77
2023/08/27 03:06:47;;;;;;;12.98;9.48;;;13.30;99.90;;;;;;5074410;28;20043;-77
2023/08/27 03:09:13;;;;;;;11.15;9.88;;;13.40;99.90;;;;;;5056903;28;20070;-77
2023/08/27 03:11:38;;;;;;;12.82;10.27;;;13.30;99.90;;;;;;5072087;28;20426;-77
2023/08/27 03:14:04;;;;;;;12.13;10.00;;;13.30;99.90;;;;;;5073672;28;20040;-77
2023/08/27 03:16:29;;;;;;;10.70;9.60;;;13.30;99.90;;;;;;5069184;28;20557;-77
2023/08/27 03:18:55;;;;;;;12.13;9.93;;;13.30;99.90;;;;;;5069810;28;20056;-76
2023/08/27 03:21:21;;;;;;;14.60;9.82;;;13.30;99.90;;;;;;5073724;28;20044;-77
2023/08/27 03:23:47;;;;;;;15.63;10.38;;;13.30;99.90;;;;;;5074144;28;20060;-77
2023/08/27 03:26:13;;;;;;;14.38;10.18;;;13.30;99.90;;;;;;5074873;28;20044;-77
2023/08/27 03:28:38;;;;;;;15.45;9.95;;;13.30;99.90;;;;;;5070834;28;20059;-77
2023/08/27 03:31:04;;;;;;;14.02;10.77;;;13.30;99.90;;;;;;5076259;28;20196;-76
2023/08/27 03:33:31;;;;;;;15.57;10.15;;;13.30;99.90;;;;;;5075100;28;20043;-77
2023/08/27 03:35:58;;;;;;;11.25;10.05;;;13.30;99.90;;;;;;5072616;28;20089;-77
2023/08/27 03:38:24;;;;;;;11.93;9.70;;;13.40;99.90;;;;;;5070073;28;20125;-77
2023/08/27 03:40:51;;;;;;;12.45;10.40;;;13.40;99.90;;;;;;5092029;28;20471;-76
2023/08/27 03:43:17;;;;;;;12.27;10.40;;;13.40;99.90;;;;;;5072466;28;20044;-76
2023/08/27 03:45:43;;;;;;;14.00;10.07;;;13.40;99.90;;;;;;5084087;28;20100;-76
2023/08/27 03:48:09;;;;;;;11.40;10.25;;;13.40;99.90;;;;;;5072108;28;20052;-76
2023/08/27 03:50:36;;;;;;;16.38;11.07;;;13.50;99.90;;;;;;5074881;28;20126;-76
2023/08/27 03:53:03;;;;;;;12.38;9.40;;;13.50;99.90;;;;;;5071347;28;20452;-76
2023/08/27 03:55:28;;;;;;;12.77;10.15;;;13.50;99.90;;;;;;5069163;28;20127;-76
2023/08/27 03:57:54;;;;;;;12.23;10.23;;;13.50;99.90;;;;;;5071133;28;20124;-76
2023/08/27 04:00:22;;;;;;;11.45;10.25;;;13.50;99.90;;;;;;5067936;28;20044;-76
2023/08/27 04:02:47;;;;;;;12.00;9.50;;;13.50;99.90;;;;;;5069973;28;20051;-76
2023/08/27 04:05:13;;;;;;;11.52;10.20;;;13.60;99.90;;;;;;5069596;28;20298;-77
2023/08/27 04:07:39;;;;;;;12.02;9.90;;;13.60;99.90;;;;;;5103216;28;20044;-77
2023/08/27 04:10:05;;;;;;;12.48;10.15;;;13.60;99.90;;;;;;5067420;28;20043;-76
2023/08/27 04:12:33;;;;;;;22.05;10.02;;;13.60;99.90;;;;;;5070077;28;20049;-77
2023/08/27 04:14:59;;;;;;;11.68;10.00;;;13.70;99.90;;;;;;5069150;28;20040;-77
2023/08/27 04:17:25;;;;;;;12.95;10.18;;;13.70;99.90;;;;;;5070743;28;20051;-76
2023/08/27 04:19:52;;;;;;;15.38;10.05;;;13.70;99.90;;;;;;5071099;28;20055;-76
2023/08/27 04:22:18;;;;;;;11.30;9.05;;;13.70;99.90;;;;;;5070943;28;20573;-76
2023/08/27 04:24:43;;;;;;;14.60;10.43;;;13.70;99.90;;;;;;5097404;28;20037;-77
2023/08/27 04:27:10;;;;;;;13.55;10.50;;;13.70;99.90;;;;;;5066848;28;20048;-76
2023/08/27 04:29:36;;;;;;;14.32;9.70;;;13.80;99.90;;;;;;5071124;28;20050;-77
2023/08/27 04:32:03;;;;;;;11.40;10.18;;;13.70;99.90;;;;;;5068759;28;20066;-76
2023/08/27 04:34:29;;;;;;;12.48;9.70;;;13.70;99.90;;;;;;5068916;28;20048;-77
2023/08/27 04:36:56;;;;;;;11.55;9.95;;;13.70;99.90;;;;;;5069543;28;20575;-76
2023/08/27 04:39:22;;;;;;;13.00;9.63;;;13.70;99.90;;;;;;5067574;28;20068;-76
2023/08/27 04:41:48;;;;;;;11.90;9.52;;;13.70;99.90;;;;;;5067847;28;20482;-75
2023/08/27 04:44:14;;;;;;;12.43;9.90;;;13.70;99.90;;;;;;5070896;28;20162;-77
2023/08/27 04:46:39;;;;;;;11.18;9.82;;;13.60;99.90;;;;;;5072069;28;20039;-76
2023/08/27 04:49:05;;;;;;;13.30;9.98;;;13.60;99.90;;;;;;5071260;28;20178;-76
2023/08/27 04:51:31;;;;;;;15.20;10.40;;;13.60;99.90;;;;;;5069331;28;20045;-77
2023/08/27 04:53:56;;;;;;;10.43;9.25;;;13.60;99.90;;;;;;5051314;28;20045;-77
2023/08/27 04:56:22;;;;;;;10.68;9.15;;;13.60;99.90;;;;;;5068006;28;20116;-77
2023/08/27 04:58:48;;;;;;;11.68;9.80;;;13.60;99.90;;;;;;5070829;28;20074;-76
2023/08/27 05:01:13;;;;;;;12.95;9.38;;;13.60;99.90;;;;;;5077117;28;20064;-76
2023/08/27 05:03:39;;;;;;;11.95;9.60;;;13.60;99.90;;;;;;5075190;28;20033;-76
2023/08/27 05:06:05;;;;;;;11.23;9.00;;;13.60;99.90;;;;;;5072833;28;20033;-76
2023/08/27 05:08:31;;;;;;;14.43;9.95;;;13.50;99.90;;;;;;5072619;28;20627;-76
2023/08/27 05:11:00;;;;;;;14.43;10.35;;;13.60;99.90;;;;;;5105398;27;20425;-76
2023/08/27 05:13:26;;;;;;;10.73;9.35;;;13.50;99.90;;;;;;5074728;28;20052;-76
2023/08/27 05:15:51;;;;;;;15.85;9.15;;;13.50;99.90;;;;;;5073213;28;20043;-76
2023/08/27 05:18:17;;;;;;;10.38;8.68;;;13.50;99.90;;;;;;5074264;28;20052;-76
2023/08/27 05:20:44;;;;;;;11.68;9.02;;;13.60;99.90;;;;;;5070872;28;20057;-76
2023/08/27 05:23:11;;;;;;;12.38;8.93;;;13.50;99.90;;;;;;5074745;28;20495;-76
2023/08/27 05:25:37;;;;;;;13.10;9.00;;;13.50;99.90;;;;;;5075025;28;20044;-76
2023/08/27 05:28:03;;;;;;;11.07;8.60;;;13.50;99.90;;;;;;5074907;28;20040;-76
2023/08/27 05:30:29;;;;;;;13.52;8.90;;;13.50;99.90;;;;;;5070750;28;20494;-75
2023/08/27 05:32:55;;;;;;;11.73;8.68;;;13.60;99.90;;;;;;5070700;28;20047;-76
2023/08/27 05:35:22;;;;;;;11.48;9.27;;;13.60;99.90;;;;;;5073567;28;20067;-77
2023/08/27 05:37:47;;;;;;;17.30;8.60;;;13.60;99.90;;;;;;5074873;28;20123;-76
2023/08/27 05:40:13;;;;;;;14.40;9.18;;;13.70;99.90;;;;;;5076362;28;20085;-75
2023/08/27 05:42:39;;;;;;;14.38;8.43;;;13.70;99.90;;;;;;5072007;28;20127;-76
2023/08/27 05:45:05;;;;;;;12.18;8.52;;;13.80;99.90;;;;;;5072278;28;20040;-76
2023/08/27 05:47:31;;;;;;;9.65;7.53;;;13.90;99.90;;;;;;5073333;28;20050;-76
2023/08/27 05:49:57;;;;;;;10.13;8.50;;;13.90;99.90;;;;;;5073809;28;20131;-75
2023/08/27 05:52:22;;;;;;;13.45;8.43;;;14.00;99.90;;;;;;5070268;28;20058;-75
2023/08/27 05:54:48;;;;;;;14.45;8.45;;;14.10;99.90;;;;;;5073201;28;20036;-76
2023/08/27 05:57:13;;;;;;;8.73;7.80;;;14.20;99.90;;;;;;5073542;28;20117;-76
2023/08/27 05:59:39;;;;;;;9.98;8.00;;;14.30;99.90;;;;;;5075347;28;20058;-75
2023/08/27 06:02:07;;;;;;;9.52;7.70;;;14.30;99.90;;;;;;5070388;28;20442;-75
2023/08/27 06:04:34;;;;;;;12.05;8.15;;;14.30;99.90;;;;;;5101391;27;20102;-75
2023/08/27 06:07:00;;;;;;;12.77;8.15;;;14.30;99.90;;;;;;5071834;28;20044;-74
2023/08/27 06:09:26;;;;;;;10.05;7.80;;;14.30;99.90;;;;;;5072892;28;20454;-75
2023/08/27 06:11:51;;;;;;;10.25;8.18;;;14.30;99.90;;;;;;5072578;28;20044;-74
2023/08/27 06:14:17;;;;;;;11.27;7.65;;;14.30;99.90;;;;;;5074287;28;20040;-75
2023/08/27 06:16:43;;;;;;;8.88;7.57;;;14.40;99.90;;;;;;5068001;28;20071;-74
2023/08/27 06:19:09;;;;;;;10.65;7.90;;;14.40;99.90;;;;;;5073362;28;20432;-74
2023/08/27 06:21:34;;;;;;;9.63;7.60;;;14.30;99.90;;;;;;5073932;28;20186;-74
2023/08/27 06:24:00;;;;;;;12.30;8.73;;;14.40;99.90;;;;;;5075513;28;20126;-75
2023/08/27 06:26:26;;;;;;;12.32;8.18;;;14.40;99.90;;;;;;5068404;28;20045;-75
2023/08/27 06:28:51;;;;;;;12.73;7.88;;;14.50;99.90;;;;;;5067959;28;20036;-75
2023/08/27 06:31:17;;;;;;;10.40;7.95;;;14.50;99.90;;;;;;5070251;28;20185;-75
2023/08/27 06:33:42;;;;;;;9.23;7.68;;;14.50;99.90;;;;;;5070807;28;20040;-75
2023/08/27 06:36:08;;;;;;;10.55;7.25;;;14.60;99.90;;;;;;5084885;28;20039;-74
2023/08/27 06:38:34;;;;;;;9.77;7.45;;;14.60;99.90;;;;;;5073004;28;20094;-75
2023/08/27 06:40:59;;;;;;;13.80;7.97;;;14.50;99.90;;;;;;5049934;28;20044;-75
2023/08/27 06:43:25;;;;;;;14.00;8.23;;;14.60;99.90;;;;;;5068936;28;20048;-75
2023/08/27 06:45:51;;;;;;;9.60;6.78;;;14.60;99.90;;;;;;5071825;28;20131;-74
2023/08/27 06:48:17;;;;;;;11.40;7.32;;;14.60;99.90;;;;;;5072728;28;20040;-74
2023/08/27 06:50:43;;;;;;;10.20;7.22;;;14.60;99.90;;;;;;5075166;28;20068;-75
2023/08/27 06:53:12;;;;;;;11.98;7.03;;;14.60;99.90;;;;;;5072304;28;20134;-75
2023/08/27 06:55:37;;;;;;;12.15;6.70;;;14.70;99.90;;;;;;5072757;28;20044;-76
2023/08/27 06:58:03;;;;;;;14.25;7.07;;;14.60;99.90;;;;;;5069179;28;20044;-76
2023/08/27 07:00:29;;;;;;;10.32;6.85;;;14.60;99.90;;;;;;5069689;28;20039;-76
2023/08/27 07:02:54;;;;;;;11.25;6.35;;;14.60;99.90;;;;;;5073586;28;20044;-75
2023/08/27 07:05:20;;;;;;;7.80;5.72;;;14.60;99.90;;;;;;5050271;28;20047;-76
2023/08/27 07:07:46;;;;;;;11.45;6.50;;;14.60;99.90;;;;;;5071744;28;20056;-76
2023/08/27 07:10:14;;;;;;;10.18;6.00;;;14.60;99.90;;;;;;5069921;28;20044;-76
2023/08/27 07:12:40;;;;;;;7.50;5.28;;;14.60;99.90;;;;;;5071298;28;20055;-76
2023/08/27 07:15:07;;;;;;;9.25;6.20;;;14.60;99.90;;;;;;5069885;28;20051;-76
2023/08/27 07:17:33;;;;;;;8.85;5.97;;;14.60;99.90;;;;;;5068174;28;20663;-76
2023/08/27 07:20:03;;;;;;;9.48;5.75;;;14.60;99.90;;;;;;5075777;28;20439;-76
2023/08/27 07:22:29;;;;;;;9.77;5.55;;;14.60;99.90;;;;;;5069354;28;20043;-75
2023/08/27 07:24:55;;;;;;;6.05;4.93;;;14.60;99.90;;;;;;5067217;28;20089;-76
2023/08/27 07:27:21;;;;;;;7.97;4.45;;;14.60;99.90;;;;;;5070027;28;20059;-76
2023/08/27 07:29:47;;;;;;;6.65;4.45;;;14.60;99.90;;;;;;5068735;28;20044;-76
2023/08/27 07:32:12;;;;;;;4.70;3.45;;;14.70;99.90;;;;;;5069219;28;20125;-76
2023/08/27 07:34:38;;;;;;;6.68;3.80;;;14.60;99.90;;;;;;5075342;28;20105;-76
2023/08/27 07:37:04;;;;;;;5.60;3.72;;;14.70;99.90;;;;;;5065315;28;20043;-76
2023/08/27 07:39:29;;;;;;;6.95;3.40;;;14.80;99.90;;;;;;5071678;28;20137;-76
2023/08/27 07:41:55;;;;;;;3.97;3.17;;;14.80;99.90;;;;;;5070460;28;20040;-76
2023/08/27 07:44:21;;;;;;;6.80;3.38;;;14.80;99.90;;;;;;5069065;28;20040;-76
2023/08/27 07:46:46;;;;;;;6.47;3.47;;;14.80;99.90;;;;;;5069750;28;20048;-76
2023/08/27 07:49:12;;;;;;;5.35;2.95;;;14.80;99.90;;;;;;5071472;28;20044;-75
2023/08/27 07:51:37;;;;;;;8.63;3.60;;;14.80;99.90;;;;;;5071739;28;20779;-75
2023/08/27 07:54:03;;;;;;;5.63;3.35;;;14.80;99.90;;;;;;5072826;28;20898;-76
2023/08/27 07:56:29;;;;;;;4.50;3.20;;;14.90;99.90;;;;;;5066106;28;20636;-76
2023/08/27 07:58:55;;;;;;;5.68;3.35;;;14.90;99.90;;;;;;5069697;28;20508;-76
2023/08/27 08:01:20;;;;;;;4.78;3.33;;;14.90;99.90;;;;;;5055324;28;20037;-76
2023/08/27 08:03:46;;;;;;;4.78;3.20;;;14.90;99.90;;;;;;5068438;28;20131;-75
2023/08/27 08:06:12;;;;;;;5.55;3.40;;;15.00;99.90;;;;;;5064302;28;20094;-75
2023/08/27 08:08:38;;;;;;;4.68;3.45;;;15.00;99.90;;;;;;5069391;28;21901;-76
2023/08/27 08:11:04;;;;;;;4.72;3.45;;;15.00;99.90;;;;;;5067894;28;20043;-76
2023/08/27 08:13:32;;;;;;;6.38;3.30;;;15.10;99.90;;;;;;5070911;28;20048;-76
2023/08/27 08:15:58;;;;;;;4.82;3.47;;;15.30;99.90;;;;;;5070769;28;20040;-76
2023/08/27 08:18:24;;;;;;;7.63;3.38;;;15.60;99.90;;;;;;5071248;28;20048;-75
2023/08/27 08:20:53;;;;;;;4.47;3.17;;;15.90;99.90;;;;;;5071393;28;20044;-75
2023/08/27 08:23:19;;;;;;;5.38;3.80;;;16.20;99.90;;;;;;5065342;28;20427;-75
2023/08/27 08:25:49;;;;;;;5.40;3.17;;;16.40;99.90;;;;;;5066007;28;20041;-76
2023/08/27 08:28:15;;;;;;;5.57;3.00;;;16.60;99.90;;;;;;5069301;28;20056;-77
2023/08/27 08:30:47;;;;;;;6.43;3.38;;;16.70;99.90;;;;;;5099179;28;20036;-76
2023/08/27 08:33:14;;;;;;;4.32;2.65;;;16.90;99.90;;;;;;5080467;28;20080;-76
2023/08/27 08:35:40;;;;;;;8.65;3.55;;;17.00;99.90;;;;;;5074958;28;20048;-77
2023/08/27 08:38:06;;;;;;;8.00;3.45;;;17.00;99.90;;;;;;5075321;28;20032;-75
2023/08/27 08:40:38;;;;;;;6.40;3.35;;;17.20;99.90;;;;;;5052685;28;20076;-75
2023/08/27 08:43:06;;;;;;;4.47;2.75;;;17.20;99.90;;;;;;5070489;28;20052;-77
2023/08/27 08:45:37;;;;;;;;;;;17.30;99.90;;;;;;5073132;28;20040;-76
2023/08/27 08:48:06;;;;;;;7.40;3.38;;;17.40;99.90;;;;;;5073013;28;19931;-77
2023/08/27 08:50:35;;;;;;;4.72;2.78;;;17.60;99.90;;;;;;5070762;28;20516;-77
2023/08/27 08:53:08;;;;;;;4.63;2.78;;;17.80;99.90;;;;;;5099374;27;20603;-77
2023/08/27 08:55:35;;;;;;;4.70;2.88;;;17.90;99.90;;;;;;5074268;28;20663;-76
2023/08/27 08:58:10;;;;;;;7.90;3.10;;;17.90;99.90;;;;;;5106265;27;20094;-77
2023/08/27 09:00:36;;;;;;;4.15;2.42;;;17.90;99.90;;;;;;5067160;28;20044;-76
2023/08/27 09:03:03;;;;;;;3.70;2.53;;;17.90;99.90;;;;;;5071629;28;20048;-77
2023/08/27 09:05:31;;;;;;;4.55;2.30;;;18.00;99.90;;;;;;5070921;28;20452;-76
2023/08/27 09:07:57;;;;;;;5.88;2.50;;;18.20;99.90;;;;;;5072278;28;20055;-76
2023/08/27 09:10:24;;;;;;;5.32;2.60;;;18.20;99.90;;;;;;5069548;28;20048;-76
2023/08/27 09:12:56;;;;;;;4.65;2.60;;;18.40;99.90;;;;;;5074372;28;20036;-77
2023/08/27 09:15:22;;;;;;;4.05;2.53;;;18.60;99.90;;;;;;5070306;28;20169;-77
2023/08/27 09:17:48;;;;;;;3.83;2.00;;;18.60;99.90;;;;;;5073099;28;20772;-78
2023/08/27 09:20:14;;;;;;;3.40;1.98;;;18.70;99.90;;;;;;5072871;28;20048;-76
2023/08/27 09:22:41;;;;;;;7.15;2.05;;;18.80;99.90;;;;;;5071980;28;20064;-79
2023/08/27 09:25:09;;;;;;;6.35;2.20;;;19.00;99.90;;;;;;5077324;28;20055;-79
2023/08/27 09:27:35;;;;;;;5.65;2.20;;;19.00;99.90;;;;;;5078641;28;20040;-79
2023/08/27 09:30:04;;;;;;;4.63;2.20;;;19.10;99.90;;;;;;5076776;28;20569;-79
2023/08/27 09:32:30;;;;;;;4.25;2.13;;;19.20;99.90;;;;;;5076826;28;20505;-79
2023/08/27 09:35:01;;;;;;;2.95;1.85;;;19.20;99.90;;;;;;5079093;28;20047;-78
2023/08/27 09:37:28;;;;;;;4.72;2.33;;;19.40;99.90;;;;;;5072222;28;20102;-78
2023/08/27 09:39:54;;;;;;;9.52;1.95;;;19.40;99.90;;;;;;5072544;28;20052;-78
2023/08/27 09:42:32;;;;;;;4.10;1.90;;;19.60;99.90;;;;;;5074441;28;20032;-79
2023/08/27 09:44:58;;;;;;;2.70;1.70;;;19.70;99.90;;;;;;5082291;28;20048;-79
2023/08/27 09:47:38;;;;;;;3.80;1.90;;;19.80;99.90;;;;;;5086087;28;20798;-78
2023/08/27 09:50:06;;;;;;;5.70;1.88;;;19.90;99.90;;;;;;5081645;28;20036;-79
2023/08/27 09:52:35;;;;;;;3.42;1.70;;;19.80;99.90;;;;;;5070242;28;20040;-79
2023/08/27 09:55:01;;;;;;;4.80;2.00;;;19.70;99.90;;;;;;5085666;28;20114;-79
2023/08/27 09:57:29;;;;;;;3.45;1.75;;;19.80;99.90;;;;;;5079582;28;20040;-79
2023/08/27 09:59:55;;;;;;;5.05;1.83;;;20.00;99.90;;;;;;5075834;28;20455;-78
2023/08/27 10:02:21;;;;;;;6.13;2.65;;;20.00;99.90;;;;;;5078508;28;20040;-78
2023/08/27 10:04:56;;;;;;;4.72;2.00;;;20.10;99.90;;;;;;5085323;28;20045;-80
2023/08/27 10:07:22;;;;;;;2.90;2.00;;;20.30;99.90;;;;;;5083734;28;20041;-79
2023/08/27 10:09:53;;;;;;;2.75;1.65;;;20.60;99.90;;;;;;5079335;28;20044;-80
2023/08/27 10:12:20;;;;;;;5.70;2.05;;;20.50;99.90;;;;;;5080282;28;20051;-80
2023/08/27 10:14:47;;;;;;;4.75;2.13;;;20.40;99.90;;;;;;5076678;28;20040;-78
2023/08/27 10:17:14;;;;;;;4.75;2.22;;;20.50;99.90;;;;;;5109729;27;20052;-79
2023/08/27 10:19:40;;;;;;;3.38;1.83;;;20.30;99.90;;;;;;5078805;28;20036;-79
2023/08/27 10:22:06;;;;;;;5.28;2.28;;;20.20;99.90;;;;;;5080795;28;20459;-79
2023/08/27 10:24:33;;;;;;;9.05;4.60;;;20.10;99.90;;;;;;5084708;28;20126;-80
2023/08/27 10:27:01;;;;;;;15.60;8.77;;;20.30;99.90;;;;;;5082548;28;20040;-80
2023/08/27 10:29:28;;;;;;;8.85;5.63;;;20.40;99.90;;;;;;5085720;28;20045;-81
2023/08/27 10:31:54;;;;;;;12.20;8.35;;;20.30;99.90;;;;;;5084891;28;20036;-80
2023/08/27 10:34:23;;;;;;;5.75;3.97;;;20.40;99.90;;;;;;5080341;28;20052;-79
2023/08/27 10:36:51;;;;;;;4.22;2.30;;;20.70;99.90;;;;;;5078838;28;20055;-80
2023/08/27 10:39:25;;;;;;;3.80;1.80;;;20.80;99.90;;;;;;5076641;28;20052;-80
2023/08/27 10:41:51;;;;;;;4.32;1.95;;;20.80;99.90;;;;;;5079892;28;20467;-80
2023/08/27 10:44:22;;;;;;;3.45;1.67;;;20.90;99.90;;;;;;5078250;28;20114;-81
2023/08/27 10:47:20;;;;;;;2.55;1.30;;;21.20;99.90;;;;;;5079892;28;20785;-79
2023/08/27 10:49:49;;;;;;;5.38;1.90;;;21.60;99.90;;;;;;5057523;28;20481;-79
2023/08/27 10:52:19;;;;;;;5.43;2.17;;;21.90;99.90;;;;;;5079551;28;20131;-80
2023/08/27 10:54:46;;;;;;;4.13;1.65;;;22.10;99.90;;;;;;5081545;28;20401;-80
2023/08/27 10:57:21;;;;;;;7.30;2.00;;;22.50;99.90;;;;;;5073623;28;20044;-81
2023/08/27 10:59:47;;;;;;;2.50;1.55;;;22.60;99.90;;;;;;5073680;28;20058;-80
2023/08/27 11:02:16;;;;;;;2.47;1.45;;;22.40;99.90;;;;;;5076128;28;20044;-79
2023/08/27 11:04:52;;;;;;;3.05;1.70;;;22.00;99.90;;;;;;5074105;28;20078;-80
2023/08/27 11:07:19;;;;;;;3.92;1.88;;;21.50;99.90;;;;;;5076992;28;20051;-80
2023/08/27 11:09:55;;;;;;;3.58;1.90;;;21.20;99.90;;;;;;5074233;28;20075;-78
2023/08/27 11:12:24;;;;;;;3.85;1.83;;;20.90;99.90;;;;;;5079473;28;20047;-78
2023/08/27 11:14:50;;;;;;;4.45;2.35;;;20.60;99.90;;;;;;5078820;28;20078;-78
2023/08/27 11:17:28;;;;;;;3.85;2.22;;;20.30;99.90;;;;;;5079984;28;20048;-77
2023/08/27 11:19:57;;;;;;;4.75;2.38;;;20.00;99.90;;;;;;5067083;28;20048;-77
2023/08/27 11:22:23;;;;;;;10.70;3.85;;;19.70;99.90;;;;;;5069098;28;20051;-75
2023/08/27 11:24:53;;;;;;;8.00;3.05;;;19.40;99.90;;;;;;5065787;28;20048;-75
2023/08/27 11:27:20;;;;;;;7.70;3.60;;;19.20;99.90;;;;;;5066224;28;20670;-77
2023/08/27 11:29:53;;;;;;;12.18;4.53;;;18.90;99.90;;;;;;5067127;28;20043;-77
2023/08/27 11:32:20;;;;;;;7.28;3.58;;;18.70;99.90;;;;;;5069982;28;20497;-78
2023/08/27 11:34:51;;;;;;;5.63;3.17;;;18.50;99.90;;;;;;5063088;28;20087;-78
2023/08/27 11:37:17;;;;;;;5.53;2.72;;;18.50;99.90;;;;;;5068663;28;20127;-78
2023/08/27 11:39:43;;;;;;;9.75;3.00;;;18.50;99.90;;;;;;5070841;28;20129;-77
2023/08/27 11:42:14;;;;;;;4.85;3.00;;;18.50;99.90;;;;;;5073301;28;20585;-80
2023/08/27 11:44:50;;;;;;;5.00;2.90;;;18.50;99.90;;;;;;5076543;28;20048;-79
2023/08/27 11:47:16;;;;;;;5.82;2.97;;;18.50;99.90;;;;;;5108141;27;20048;-79
2023/08/27 11:49:41;;;;;;;8.25;3.22;;;18.50;99.90;;;;;;5077608;28;20036;-79
2023/08/27 11:52:07;;;;;;;8.63;3.47;;;18.40;99.90;;;;;;5077847;28;20051;-80
2023/08/27 11:54:34;;;;;;;4.70;3.10;;;18.40;99.90;;;;;;5077024;28;20036;-80
2023/08/27 11:57:04;;;;;;;6.70;2.90;;;18.40;99.90;;;;;;5072054;28;20105;-78
2023/08/27 11:59:31;;;;;;;3.38;1.85;;;18.30;99.90;;;;;;5071587;28;20432;-77
2023/08/27 12:01:57;;;;;;;2.33;1.75;;;18.20;99.90;;;;;;5067154;28;20048;-78
2023/08/27 12:04:32;;;;;;;3.08;1.50;;;17.90;99.90;;;;;;5066868;28;20053;-78
2023/08/27 12:07:03;;;;;;;2.97;1.42;;;17.70;99.90;;;;;;5079357;28;20117;-78
2023/08/27 12:09:30;;;;;;;3.35;1.80;;;17.60;99.90;;;;;;5084098;28;20086;-78
2023/08/27 12:12:04;;;;;;;3.50;1.42;;;17.40;99.90;;;;;;5082972;28;20234;-78
2023/08/27 12:14:30;;;;;;;2.90;1.45;;;17.20;99.90;;;;;;5083311;28;20110;-78
2023/08/27 12:17:04;;;;;;;2.42;1.33;;;17.10;99.90;;;;;;5078182;28;20331;-78
2023/08/27 12:19:30;;;;;;;3.25;1.40;;;16.90;99.90;;;;;;5074430;28;20047;-78
2023/08/27 12:21:59;;;;;;;2.60;1.50;;;16.90;99.90;;;;;;5074046;28;20044;-78
2023/08/27 12:24:29;;;;;;;5.10;1.70;;;16.70;99.90;;;;;;5073193;28;20536;-77
2023/08/27 12:26:55;;;;;;;3.35;1.30;;;16.60;99.90;;;;;;5077009;28;20524;-78
2023/08/27 12:29:25;;;;;;;7.88;1.17;;;16.40;99.90;;;;;;5104001;27;20049;-79
2023/08/27 12:31:53;;;;;;;3.05;1.02;;;16.30;99.90;;;;;;5069872;28;20074;-78
2023/08/27 12:34:18;;;;;;;2.53;1.05;;;16.10;99.90;;;;;;5076222;28;20056;-78
2023/08/27 12:36:44;;;;;;;2.33;1.00;;;16.00;99.90;;;;;;5070357;28;20044;-78
2023/08/27 12:39:09;;;;;;;1.75;1.10;;;15.90;99.90;;;;;;5069347;28;20044;-77
2023/08/27 12:41:35;;;;;;;2.17;1.02;;;15.90;99.90;;;;;;5071454;28;20060;-77